sensor_id;sensor_type;location;lat;lon;timestamp;temperature;humidity
22779;DHT22;11556;51.194;3.800;2023-11-19T00:01:53;14.30;99.90
22779;DHT22;11556;51.194;3.800;2023-11-19T00:04:18;14.20;99.90
22779;DHT22;11556;51.194;3.800;2023-11-19T00:06:44;14.20;99.90
22779;DHT22;11556;51.194;3.800;2023-11-19T00:09:10;14.20;99.90
22779;DHT22;11556;51.194;3.800;2023-11-19T00:11:35;14.20;99.90
22779;DHT22;11556;51.194;3.800;2023-11-19T00:14:01;14.30;99.90
22779;DHT22;11556;51.194;3.800;2023-11-19T00:16:27;14.20;99.90
22779;DHT22;11556;51.194;3.800;2023-11-19T00:18:53;14.30;99.90
22779;DHT22;11556;51.194;3.800;2023-11-19T00:21:19;14.40;99.90
22779;DHT22;11556;51.194;3.800;2023-11-19T00:23:44;14.40;99.90
22779;DHT22;11556;51.194;3.800;2023-11-19T00:26:10;14.40;99.90
22779;DHT22;11556;51.194;3.800;2023-11-19T00:28:36;14.30;99.90
22779;DHT22;11556;51.194;3.800;2023-11-19T00:31:04;14.30;99.90
22779;DHT22;11556;51.194;3.800;2023-11-19T00:33:30;14.30;99.90
22779;DHT22;11556;51.194;3.800;2023-11-19T00:35:56;14.40;99.90
22779;DHT22;11556;51.194;3.800;2023-11-19T00:38:22;14.40;99.90
22779;DHT22;11556;51.194;3.800;2023-11-19T00:40:47;14.50;99.90
22779;DHT22;11556;51.194;3.800;2023-11-19T00:43:13;14.50;99.90
22779;DHT22;11556;51.194;3.800;2023-11-19T00:45:39;14.40;99.90
22779;DHT22;11556;51.194;3.800;2023-11-19T00:48:04;14.40;99.90
22779;DHT22;11556;51.194;3.800;2023-11-19T00:50:30;14.40;99.90
22779;DHT22;11556;51.194;3.800;2023-11-19T00:52:56;14.50;99.90
22779;DHT22;11556;51.194;3.800;2023-11-19T00:55:22;14.30;99.90
22779;DHT22;11556;51.194;3.800;2023-11-19T00:57:47;14.20;99.90
22779;DHT22;11556;51.194;3.800;2023-11-19T01:00:13;14.00;99.90
22779;DHT22;11556;51.194;3.800;2023-11-19T01:02:45;14.10;99.90
22779;DHT22;11556;51.194;3.800;2023-11-19T01:05:10;14.00;99.90
22779;DHT22;11556;51.194;3.800;2023-11-19T01:07:39;14.10;99.90
22779;DHT22;11556;51.194;3.800;2023-11-19T01:10:06;14.00;99.90
22779;DHT22;11556;51.194;3.800;2023-11-19T01:12:32;14.00;99.90
22779;DHT22;11556;51.194;3.800;2023-11-19T01:14:58;13.90;99.90
22779;DHT22;11556;51.194;3.800;2023-11-19T01:17:23;13.90;99.90
22779;DHT22;11556;51.194;3.800;2023-11-19T01:19:49;13.70;99.90
22779;DHT22;11556;51.194;3.800;2023-11-19T01:22:15;13.50;99.90
22779;DHT22;11556;51.194;3.800;2023-11-19T01:24:41;13.40;99.90
22779;DHT22;11556;51.194;3.800;2023-11-19T01:27:06;13.30;99.90
22779;DHT22;11556;51.194;3.800;2023-11-19T01:29:32;13.30;99.90
22779;DHT22;11556;51.194;3.800;2023-11-19T01:31:58;13.30;99.90
22779;DHT22;11556;51.194;3.800;2023-11-19T01:34:24;13.30;99.90
22779;DHT22;11556;51.194;3.800;2023-11-19T01:36:49;13.30;99.90
22779;DHT22;11556;51.194;3.800;2023-11-19T01:39:15;13.30;99.90
22779;DHT22;11556;51.194;3.800;2023-11-19T01:41:45;13.30;99.90
22779;DHT22;11556;51.194;3.800;2023-11-19T01:44:11;13.50;99.90
22779;DHT22;11556;51.194;3.800;2023-11-19T01:46:41;13.60;99.90
22779;DHT22;11556;51.194;3.800;2023-11-19T01:49:07;13.80;99.90
22779;DHT22;11556;51.194;3.800;2023-11-19T01:51:34;13.80;99.90
22779;DHT22;11556;51.194;3.800;2023-11-19T01:54:00;13.90;99.90
22779;DHT22;11556;51.194;3.800;2023-11-19T01:56:27;14.00;99.90
22779;DHT22;11556;51.194;3.800;2023-11-19T01:58:54;13.90;99.90
22779;DHT22;11556;51.194;3.800;2023-11-19T02:01:21;13.90;99.90
22779;DHT22;11556;51.194;3.800;2023-11-19T02:03:47;13.90;99.90
22779;DHT22;11556;51.194;3.800;2023-11-19T02:06:13;13.80;99.90
22779;DHT22;11556;51.194;3.800;2023-11-19T02:08:39;13.70;99.90
22779;DHT22;11556;51.194;3.800;2023-11-19T02:11:05;13.80;99.90
22779;DHT22;11556;51.194;3.800;2023-11-19T02:13:32;13.90;99.90
22779;DHT22;11556;51.194;3.800;2023-11-19T02:15:58;13.90;99.90
22779;DHT22;11556;51.194;3.800;2023-11-19T02:18:26;13.80;99.90
22779;DHT22;11556;51.194;3.800;2023-11-19T02:20:59;13.80;99.90
22779;DHT22;11556;51.194;3.800;2023-11-19T02:23:27;13.60;99.90
22779;DHT22;11556;51.194;3.800;2023-11-19T02:26:12;13.50;99.90
22779;DHT22;11556;51.194;3.800;2023-11-19T02:28:39;13.40;99.90
22779;DHT22;11556;51.194;3.800;2023-11-19T02:31:07;13.30;99.90
22779;DHT22;11556;51.194;3.800;2023-11-19T02:33:39;13.20;99.90
22779;DHT22;11556;51.194;3.800;2023-11-19T02:36:06;13.10;99.90
22779;DHT22;11556;51.194;3.800;2023-11-19T02:38:35;13.10;99.90
22779;DHT22;11556;51.194;3.800;2023-11-19T02:41:05;13.10;99.90
22779;DHT22;11556;51.194;3.800;2023-11-19T02:43:32;13.10;99.90
22779;DHT22;11556;51.194;3.800;2023-11-19T02:46:01;13.10;99.90
22779;DHT22;11556;51.194;3.800;2023-11-19T02:48:26;13.20;99.90
22779;DHT22;11556;51.194;3.800;2023-11-19T02:50:52;13.30;99.90
22779;DHT22;11556;51.194;3.800;2023-11-19T02:53:18;13.30;99.90
22779;DHT22;11556;51.194;3.800;2023-11-19T02:55:47;13.30;99.90
22779;DHT22;11556;51.194;3.800;2023-11-19T02:58:15;13.30;99.90
22779;DHT22;11556;51.194;3.800;2023-11-19T03:00:53;13.20;99.90
22779;DHT22;11556;51.194;3.800;2023-11-19T03:03:35;13.10;99.90
22779;DHT22;11556;51.194;3.800;2023-11-19T03:06:07;13.10;99.90
22779;DHT22;11556;51.194;3.800;2023-11-19T03:08:35;13.10;99.90
22779;DHT22;11556;51.194;3.800;2023-11-19T03:11:01;13.00;99.90
22779;DHT22;11556;51.194;3.800;2023-11-19T03:13:27;13.00;99.90
22779;DHT22;11556;51.194;3.800;2023-11-19T03:15:53;13.00;99.90
22779;DHT22;11556;51.194;3.800;2023-11-19T03:18:20;12.90;99.90
22779;DHT22;11556;51.194;3.800;2023-11-19T03:20:47;13.00;99.90
22779;DHT22;11556;51.194;3.800;2023-11-19T03:23:12;12.90;99.90
22779;DHT22;11556;51.194;3.800;2023-11-19T03:25:38;12.80;99.90
22779;DHT22;11556;51.194;3.800;2023-11-19T03:28:04;12.70;99.90
22779;DHT22;11556;51.194;3.800;2023-11-19T03:30:30;12.70;99.90
22779;DHT22;11556;51.194;3.800;2023-11-19T03:32:56;12.70;99.90
22779;DHT22;11556;51.194;3.800;2023-11-19T03:35:25;12.70;99.90
22779;DHT22;11556;51.194;3.800;2023-11-19T03:37:51;12.70;99.90
22779;DHT22;11556;51.194;3.800;2023-11-19T03:40:17;12.70;99.90
22779;DHT22;11556;51.194;3.800;2023-11-19T03:42:47;12.70;99.90
22779;DHT22;11556;51.194;3.800;2023-11-19T03:45:13;12.80;99.90
22779;DHT22;11556;51.194;3.800;2023-11-19T03:47:39;12.90;99.90
22779;DHT22;11556;51.194;3.800;2023-11-19T03:50:05;12.90;99.90
22779;DHT22;11556;51.194;3.800;2023-11-19T03:52:31;12.90;99.90
22779;DHT22;11556;51.194;3.800;2023-11-19T03:54:57;12.80;99.90
22779;DHT22;11556;51.194;3.800;2023-11-19T03:57:23;12.80;99.90
22779;DHT22;11556;51.194;3.800;2023-11-19T03:59:49;12.70;99.90
22779;DHT22;11556;51.194;3.800;2023-11-19T04:02:15;12.80;99.90
22779;DHT22;11556;51.194;3.800;2023-11-19T04:04:41;12.80;99.90
22779;DHT22;11556;51.194;3.800;2023-11-19T04:07:07;12.70;99.90
22779;DHT22;11556;51.194;3.800;2023-11-19T04:09:33;12.60;99.90
22779;DHT22;11556;51.194;3.800;2023-11-19T04:11:59;12.60;99.90
22779;DHT22;11556;51.194;3.800;2023-11-19T04:14:26;12.50;99.90
22779;DHT22;11556;51.194;3.800;2023-11-19T04:16:51;12.70;99.90
22779;DHT22;11556;51.194;3.800;2023-11-19T04:19:18;12.60;99.90
22779;DHT22;11556;51.194;3.800;2023-11-19T04:21:44;12.50;99.90
22779;DHT22;11556;51.194;3.800;2023-11-19T04:24:10;12.60;99.90
22779;DHT22;11556;51.194;3.800;2023-11-19T04:26:46;12.50;99.90
22779;DHT22;11556;51.194;3.800;2023-11-19T04:29:13;12.40;99.90
22779;DHT22;11556;51.194;3.800;2023-11-19T04:31:40;12.50;99.90
22779;DHT22;11556;51.194;3.800;2023-11-19T04:34:06;12.40;99.90
22779;DHT22;11556;51.194;3.800;2023-11-19T04:36:34;12.30;99.90
22779;DHT22;11556;51.194;3.800;2023-11-19T04:39:00;12.30;99.90
22779;DHT22;11556;51.194;3.800;2023-11-19T04:41:27;12.20;99.90
22779;DHT22;11556;51.194;3.800;2023-11-19T04:43:55;12.30;99.90
22779;DHT22;11556;51.194;3.800;2023-11-19T04:46:21;12.30;99.90
22779;DHT22;11556;51.194;3.800;2023-11-19T04:48:47;12.40;99.90
22779;DHT22;11556;51.194;3.800;2023-11-19T04:51:12;12.30;99.90
22779;DHT22;11556;51.194;3.800;2023-11-19T04:53:38;12.20;99.90
22779;DHT22;11556;51.194;3.800;2023-11-19T04:56:10;12.10;99.90
22779;DHT22;11556;51.194;3.800;2023-11-19T04:58:36;12.00;99.90
22779;DHT22;11556;51.194;3.800;2023-11-19T05:01:03;12.00;99.90
22779;DHT22;11556;51.194;3.800;2023-11-19T05:03:29;11.90;99.90
22779;DHT22;11556;51.194;3.800;2023-11-19T05:05:54;12.00;99.90
22779;DHT22;11556;51.194;3.800;2023-11-19T05:08:20;12.00;99.90
22779;DHT22;11556;51.194;3.800;2023-11-19T05:10:45;12.00;99.90
22779;DHT22;11556;51.194;3.800;2023-11-19T05:15:50;12.00;99.90
22779;DHT22;11556;51.194;3.800;2023-11-19T05:18:16;12.00;99.90
22779;DHT22;11556;51.194;3.800;2023-11-19T05:20:41;12.10;99.90
22779;DHT22;11556;51.194;3.800;2023-11-19T05:23:07;12.10;99.90
22779;DHT22;11556;51.194;3.800;2023-11-19T05:25:33;12.00;99.90
22779;DHT22;11556;51.194;3.800;2023-11-19T05:27:59;12.00;99.90
22779;DHT22;11556;51.194;3.800;2023-11-19T05:30:24;11.90;99.90
22779;DHT22;11556;51.194;3.800;2023-11-19T05:32:50;12.00;99.90
22779;DHT22;11556;51.194;3.800;2023-11-19T05:35:16;12.10;99.90
22779;DHT22;11556;51.194;3.800;2023-11-19T05:37:41;12.00;99.90
22779;DHT22;11556;51.194;3.800;2023-11-19T05:40:07;11.90;99.90
22779;DHT22;11556;51.194;3.800;2023-11-19T05:42:40;11.90;99.90
22779;DHT22;11556;51.194;3.800;2023-11-19T05:45:06;11.90;99.90
22779;DHT22;11556;51.194;3.800;2023-11-19T05:47:33;11.90;99.90
22779;DHT22;11556;51.194;3.800;2023-11-19T05:49:58;11.90;99.90
22779;DHT22;11556;51.194;3.800;2023-11-19T05:52:24;11.90;99.90
22779;DHT22;11556;51.194;3.800;2023-11-19T05:54:50;11.90;99.90
22779;DHT22;11556;51.194;3.800;2023-11-19T05:57:17;12.00;99.90
22779;DHT22;11556;51.194;3.800;2023-11-19T05:59:49;11.80;99.90
22779;DHT22;11556;51.194;3.800;2023-11-19T06:02:15;11.80;99.90
22779;DHT22;11556;51.194;3.800;2023-11-19T06:04:40;11.80;99.90
22779;DHT22;11556;51.194;3.800;2023-11-19T06:07:09;11.70;99.90
22779;DHT22;11556;51.194;3.800;2023-11-19T06:09:35;11.70;99.90
22779;DHT22;11556;51.194;3.800;2023-11-19T06:12:00;11.60;99.90
22779;DHT22;11556;51.194;3.800;2023-11-19T06:14:27;11.60;99.90
22779;DHT22;11556;51.194;3.800;2023-11-19T06:16:53;11.60;99.90
22779;DHT22;11556;51.194;3.800;2023-11-19T06:19:18;11.50;99.90
22779;DHT22;11556;51.194;3.800;2023-11-19T06:21:44;11.50;99.90
22779;DHT22;11556;51.194;3.800;2023-11-19T06:24:10;11.50;99.90
22779;DHT22;11556;51.194;3.800;2023-11-19T06:26:35;11.50;99.90
22779;DHT22;11556;51.194;3.800;2023-11-19T06:29:01;11.40;99.90
22779;DHT22;11556;51.194;3.800;2023-11-19T06:31:26;11.40;99.90
22779;DHT22;11556;51.194;3.800;2023-11-19T06:33:52;11.40;99.90
22779;DHT22;11556;51.194;3.800;2023-11-19T06:36:18;11.40;99.90
22779;DHT22;11556;51.194;3.800;2023-11-19T06:38:44;11.40;99.90
22779;DHT22;11556;51.194;3.800;2023-11-19T06:41:09;11.40;99.90
22779;DHT22;11556;51.194;3.800;2023-11-19T06:43:36;11.40;99.90
22779;DHT22;11556;51.194;3.800;2023-11-19T06:46:02;11.40;99.90
22779;DHT22;11556;51.194;3.800;2023-11-19T06:48:27;11.40;99.90
22779;DHT22;11556;51.194;3.800;2023-11-19T06:50:53;11.40;99.90
22779;DHT22;11556;51.194;3.800;2023-11-19T06:53:19;11.40;99.90
22779;DHT22;11556;51.194;3.800;2023-11-19T06:55:44;11.30;99.90
22779;DHT22;11556;51.194;3.800;2023-11-19T06:58:11;11.40;99.90
22779;DHT22;11556;51.194;3.800;2023-11-19T07:00:37;11.40;99.90
22779;DHT22;11556;51.194;3.800;2023-11-19T07:03:03;11.30;99.90
22779;DHT22;11556;51.194;3.800;2023-11-19T07:05:28;11.30;99.90
22779;DHT22;11556;51.194;3.800;2023-11-19T07:07:55;11.40;99.90
22779;DHT22;11556;51.194;3.800;2023-11-19T07:10:21;11.40;99.90
22779;DHT22;11556;51.194;3.800;2023-11-19T07:12:47;11.40;99.90
22779;DHT22;11556;51.194;3.800;2023-11-19T07:15:13;11.40;99.90
22779;DHT22;11556;51.194;3.800;2023-11-19T07:17:39;11.30;99.90
22779;DHT22;11556;51.194;3.800;2023-11-19T07:20:09;11.40;99.90
22779;DHT22;11556;51.194;3.800;2023-11-19T07:22:38;11.40;99.90
22779;DHT22;11556;51.194;3.800;2023-11-19T07:25:04;11.40;99.90
22779;DHT22;11556;51.194;3.800;2023-11-19T07:27:30;11.40;99.90
22779;DHT22;11556;51.194;3.800;2023-11-19T07:29:55;11.40;99.90
22779;DHT22;11556;51.194;3.800;2023-11-19T07:32:21;11.50;99.90
22779;DHT22;11556;51.194;3.800;2023-11-19T07:34:47;11.50;99.90
22779;DHT22;11556;51.194;3.800;2023-11-19T07:37:12;11.60;99.90
22779;DHT22;11556;51.194;3.800;2023-11-19T07:39:38;11.60;99.90
22779;DHT22;11556;51.194;3.800;2023-11-19T07:42:06;11.70;99.90
22779;DHT22;11556;51.194;3.800;2023-11-19T07:44:32;11.80;99.90
22779;DHT22;11556;51.194;3.800;2023-11-19T07:46:57;11.70;99.90
22779;DHT22;11556;51.194;3.800;2023-11-19T07:49:24;11.80;99.90
22779;DHT22;11556;51.194;3.800;2023-11-19T07:51:49;11.80;99.90
22779;DHT22;11556;51.194;3.800;2023-11-19T07:54:15;11.90;99.90
22779;DHT22;11556;51.194;3.800;2023-11-19T07:56:40;12.00;99.90
22779;DHT22;11556;51.194;3.800;2023-11-19T07:59:06;12.00;99.90
22779;DHT22;11556;51.194;3.800;2023-11-19T08:01:32;12.10;99.90
22779;DHT22;11556;51.194;3.800;2023-11-19T08:03:58;12.10;99.90
22779;DHT22;11556;51.194;3.800;2023-11-19T08:06:24;12.10;99.90
22779;DHT22;11556;51.194;3.800;2023-11-19T08:08:50;12.20;99.90
22779;DHT22;11556;51.194;3.800;2023-11-19T08:11:15;12.30;99.90
22779;DHT22;11556;51.194;3.800;2023-11-19T08:13:41;12.40;99.90
22779;DHT22;11556;51.194;3.800;2023-11-19T08:16:07;12.60;99.90
22779;DHT22;11556;51.194;3.800;2023-11-19T08:18:33;12.70;99.90
22779;DHT22;11556;51.194;3.800;2023-11-19T08:20:58;13.00;99.90
22779;DHT22;11556;51.194;3.800;2023-11-19T08:23:26;13.10;99.90
22779;DHT22;11556;51.194;3.800;2023-11-19T08:25:51;13.20;99.90
22779;DHT22;11556;51.194;3.800;2023-11-19T08:28:18;13.30;99.90
22779;DHT22;11556;51.194;3.800;2023-11-19T08:30:43;13.40;99.90
22779;DHT22;11556;51.194;3.800;2023-11-19T08:33:09;13.50;99.90
22779;DHT22;11556;51.194;3.800;2023-11-19T08:35:35;13.60;99.90
22779;DHT22;11556;51.194;3.800;2023-11-19T08:38:01;13.80;99.90
22779;DHT22;11556;51.194;3.800;2023-11-19T08:40:27;13.90;99.90
22779;DHT22;11556;51.194;3.800;2023-11-19T08:42:53;14.00;99.90
22779;DHT22;11556;51.194;3.800;2023-11-19T08:45:18;14.10;99.90
22779;DHT22;11556;51.194;3.800;2023-11-19T08:47:44;14.20;99.90
22779;DHT22;11556;51.194;3.800;2023-11-19T08:50:11;14.30;99.90
22779;DHT22;11556;51.194;3.800;2023-11-19T08:52:37;14.30;99.90
22779;DHT22;11556;51.194;3.800;2023-11-19T08:55:02;14.40;99.90
22779;DHT22;11556;51.194;3.800;2023-11-19T08:57:28;14.50;99.90
22779;DHT22;11556;51.194;3.800;2023-11-19T08:59:54;14.70;99.90
22779;DHT22;11556;51.194;3.800;2023-11-19T09:02:19;14.70;99.90
22779;DHT22;11556;51.194;3.800;2023-11-19T09:04:45;14.90;99.90
22779;DHT22;11556;51.194;3.800;2023-11-19T09:07:11;14.90;99.90
22779;DHT22;11556;51.194;3.800;2023-11-19T09:09:36;14.80;99.90
22779;DHT22;11556;51.194;3.800;2023-11-19T09:12:03;14.70;99.90
22779;DHT22;11556;51.194;3.800;2023-11-19T09:14:32;14.30;99.90
22779;DHT22;11556;51.194;3.800;2023-11-19T09:16:58;14.20;99.90
22779;DHT22;11556;51.194;3.800;2023-11-19T09:19:25;14.10;99.90
22779;DHT22;11556;51.194;3.800;2023-11-19T09:21:52;14.00;99.90
22779;DHT22;11556;51.194;3.800;2023-11-19T09:24:18;14.00;99.90
22779;DHT22;11556;51.194;3.800;2023-11-19T09:26:44;14.30;99.90
22779;DHT22;11556;51.194;3.800;2023-11-19T09:29:10;14.90;99.90
22779;DHT22;11556;51.194;3.800;2023-11-19T09:31:38;15.30;99.90
22779;DHT22;11556;51.194;3.800;2023-11-19T09:34:04;15.70;99.90
22779;DHT22;11556;51.194;3.800;2023-11-19T09:36:30;16.00;99.90
22779;DHT22;11556;51.194;3.800;2023-11-19T09:38:55;16.30;99.90
22779;DHT22;11556;51.194;3.800;2023-11-19T09:41:21;16.40;99.90
22779;DHT22;11556;51.194;3.800;2023-11-19T09:43:47;16.50;99.90
22779;DHT22;11556;51.194;3.800;2023-11-19T09:46:14;16.60;99.90
22779;DHT22;11556;51.194;3.800;2023-11-19T09:48:41;16.90;99.90
22779;DHT22;11556;51.194;3.800;2023-11-19T09:51:08;17.20;99.90
22779;DHT22;11556;51.194;3.800;2023-11-19T09:53:35;17.10;99.90
22779;DHT22;11556;51.194;3.800;2023-11-19T09:56:05;17.00;99.90
22779;DHT22;11556;51.194;3.800;2023-11-19T09:58:32;16.40;99.90
22779;DHT22;11556;51.194;3.800;2023-11-19T10:01:01;15.70;99.90
22779;DHT22;11556;51.194;3.800;2023-11-19T10:03:34;14.90;99.90
22779;DHT22;11556;51.194;3.800;2023-11-19T10:06:07;14.30;99.90
22779;DHT22;11556;51.194;3.800;2023-11-19T10:08:33;14.00;99.90
22779;DHT22;11556;51.194;3.800;2023-11-19T10:10:59;13.60;99.90
22779;DHT22;11556;51.194;3.800;2023-11-19T10:13:29;13.70;99.90
22779;DHT22;11556;51.194;3.800;2023-11-19T10:15:56;13.60;99.90
22779;DHT22;11556;51.194;3.800;2023-11-19T10:18:26;13.50;99.90
22779;DHT22;11556;51.194;3.800;2023-11-19T10:20:52;13.60;99.90
22779;DHT22;11556;51.194;3.800;2023-11-19T10:23:18;13.80;99.90
22779;DHT22;11556;51.194;3.800;2023-11-19T10:25:45;13.80;99.90
22779;DHT22;11556;51.194;3.800;2023-11-19T10:28:11;13.90;99.90
22779;DHT22;11556;51.194;3.800;2023-11-19T10:30:36;13.90;99.90
22779;DHT22;11556;51.194;3.800;2023-11-19T10:33:13;14.00;99.90
22779;DHT22;11556;51.194;3.800;2023-11-19T10:35:53;14.30;99.90
22779;DHT22;11556;51.194;3.800;2023-11-19T10:38:19;14.80;99.90
22779;DHT22;11556;51.194;3.800;2023-11-19T10:40:45;15.10;99.90
22779;DHT22;11556;51.194;3.800;2023-11-19T10:43:10;15.20;99.90
22779;DHT22;11556;51.194;3.800;2023-11-19T10:45:38;15.30;99.90
22779;DHT22;11556;51.194;3.800;2023-11-19T10:48:05;15.50;99.90
22779;DHT22;11556;51.194;3.800;2023-11-19T10:50:34;15.80;99.90
22779;DHT22;11556;51.194;3.800;2023-11-19T10:53:02;16.10;99.90
22779;DHT22;11556;51.194;3.800;2023-11-19T10:55:31;16.20;99.90
22779;DHT22;11556;51.194;3.800;2023-11-19T10:58:03;16.50;99.90
22779;DHT22;11556;51.194;3.800;2023-11-19T11:00:43;16.60;99.90
22779;DHT22;11556;51.194;3.800;2023-11-19T11:03:18;16.30;99.90
22779;DHT22;11556;51.194;3.800;2023-11-19T11:05:48;16.40;99.90
22779;DHT22;11556;51.194;3.800;2023-11-19T11:08:14;16.70;99.90
22779;DHT22;11556;51.194;3.800;2023-11-19T11:10:44;16.90;99.90
22779;DHT22;11556;51.194;3.800;2023-11-19T11:13:10;17.10;99.90
22779;DHT22;11556;51.194;3.800;2023-11-19T11:15:37;17.20;99.90
22779;DHT22;11556;51.194;3.800;2023-11-19T11:18:06;17.60;99.90
22779;DHT22;11556;51.194;3.800;2023-11-19T11:20:33;17.70;99.90
22779;DHT22;11556;51.194;3.800;2023-11-19T11:26:07;18.10;99.90
22779;DHT22;11556;51.194;3.800;2023-11-19T11:39:34;15.90;99.90
22779;DHT22;11556;51.194;3.800;2023-11-19T11:47:41;14.70;99.90
22779;DHT22;11556;51.194;3.800;2023-11-19T11:50:13;14.40;99.90
22779;DHT22;11556;51.194;3.800;2023-11-19T11:57:49;14.20;99.90
22779;DHT22;11556;51.194;3.800;2023-11-19T12:02:55;14.50;99.90
22779;DHT22;11556;51.194;3.800;2023-11-19T12:05:21;14.80;99.90
22779;DHT22;11556;51.194;3.800;2023-11-19T12:08:04;15.40;99.90
22779;DHT22;11556;51.194;3.800;2023-11-19T12:10:37;15.70;99.90
22779;DHT22;11556;51.194;3.800;2023-11-19T12:13:06;16.10;99.90
22779;DHT22;11556;51.194;3.800;2023-11-19T12:18:31;16.50;99.90
22779;DHT22;11556;51.194;3.800;2023-11-19T12:20:58;16.70;99.90
22779;DHT22;11556;51.194;3.800;2023-11-19T12:23:30;16.40;99.90
22779;DHT22;11556;51.194;3.800;2023-11-19T12:25:57;16.00;99.90
22779;DHT22;11556;51.194;3.800;2023-11-19T12:28:23;15.90;99.90
22779;DHT22;11556;51.194;3.800;2023-11-19T12:30:52;15.60;99.90
22779;DHT22;11556;51.194;3.800;2023-11-19T12:33:19;15.40;99.90
22779;DHT22;11556;51.194;3.800;2023-11-19T12:35:47;15.30;99.90
22779;DHT22;11556;51.194;3.800;2023-11-19T12:38:23;15.30;99.90
22779;DHT22;11556;51.194;3.800;2023-11-19T12:41:09;15.10;99.90
22779;DHT22;11556;51.194;3.800;2023-11-19T12:43:39;15.00;99.90
22779;DHT22;11556;51.194;3.800;2023-11-19T12:46:23;14.90;99.90
22779;DHT22;11556;51.194;3.800;2023-11-19T12:48:50;14.90;99.90
22779;DHT22;11556;51.194;3.800;2023-11-19T12:51:16;14.70;99.90
22779;DHT22;11556;51.194;3.800;2023-11-19T12:56:18;14.50;99.90
22779;DHT22;11556;51.194;3.800;2023-11-19T12:58:43;14.60;99.90
22779;DHT22;11556;51.194;3.800;2023-11-19T13:01:09;14.80;99.90
22779;DHT22;11556;51.194;3.800;2023-11-19T13:03:36;15.20;99.90
22779;DHT22;11556;51.194;3.800;2023-11-19T13:08:50;16.10;99.90
22779;DHT22;11556;51.194;3.800;2023-11-19T13:11:33;16.30;99.90
22779;DHT22;11556;51.194;3.800;2023-11-19T13:14:01;16.20;99.90
22779;DHT22;11556;51.194;3.800;2023-11-19T13:16:29;16.10;99.90
22779;DHT22;11556;51.194;3.800;2023-11-19T13:18:55;15.90;99.90
22779;DHT22;11556;51.194;3.800;2023-11-19T13:21:20;15.60;99.90
22779;DHT22;11556;51.194;3.800;2023-11-19T13:23:46;15.40;99.90
22779;DHT22;11556;51.194;3.800;2023-11-19T13:26:12;15.20;99.90
22779;DHT22;11556;51.194;3.800;2023-11-19T13:28:38;14.90;99.90
22779;DHT22;11556;51.194;3.800;2023-11-19T13:31:04;14.80;99.90
22779;DHT22;11556;51.194;3.800;2023-11-19T13:33:30;14.70;99.90
22779;DHT22;11556;51.194;3.800;2023-11-19T13:35:56;14.80;99.90
22779;DHT22;11556;51.194;3.800;2023-11-19T13:38:22;14.70;99.90
22779;DHT22;11556;51.194;3.800;2023-11-19T13:40:50;14.50;99.90
22779;DHT22;11556;51.194;3.800;2023-11-19T13:43:16;14.50;99.90
22779;DHT22;11556;51.194;3.800;2023-11-19T13:45:42;14.40;99.90
22779;DHT22;11556;51.194;3.800;2023-11-19T13:48:08;14.40;99.90
22779;DHT22;11556;51.194;3.800;2023-11-19T13:50:36;14.20;99.90
22779;DHT22;11556;51.194;3.800;2023-11-19T13:53:01;14.10;99.90
22779;DHT22;11556;51.194;3.800;2023-11-19T13:55:27;13.90;99.90
22779;DHT22;11556;51.194;3.800;2023-11-19T13:57:53;13.80;99.90
22779;DHT22;11556;51.194;3.800;2023-11-19T14:00:18;13.80;99.90
22779;DHT22;11556;51.194;3.800;2023-11-19T14:02:46;13.70;99.90
22779;DHT22;11556;51.194;3.800;2023-11-19T14:05:14;13.60;99.90
22779;DHT22;11556;51.194;3.800;2023-11-19T14:07:41;13.80;99.90
22779;DHT22;11556;51.194;3.800;2023-11-19T14:10:08;14.00;99.90
22779;DHT22;11556;51.194;3.800;2023-11-19T14:12:37;14.30;99.90
22779;DHT22;11556;51.194;3.800;2023-11-19T14:15:07;14.50;99.90
22779;DHT22;11556;51.194;3.800;2023-11-19T14:17:33;14.70;99.90
22779;DHT22;11556;51.194;3.800;2023-11-19T14:20:02;14.90;99.90
22779;DHT22;11556;51.194;3.800;2023-11-19T14:22:47;14.90;99.90
22779;DHT22;11556;51.194;3.800;2023-11-19T14:25:15;14.50;99.90
22779;DHT22;11556;51.194;3.800;2023-11-19T14:27:43;14.30;99.90
22779;DHT22;11556;51.194;3.800;2023-11-19T14:30:10;14.20;99.90
22779;DHT22;11556;51.194;3.800;2023-11-19T14:32:37;14.00;99.90
22779;DHT22;11556;51.194;3.800;2023-11-19T14:35:04;14.00;99.90
22779;DHT22;11556;51.194;3.800;2023-11-19T14:37:30;13.90;99.90
22779;DHT22;11556;51.194;3.800;2023-11-19T14:39:59;13.90;99.90
22779;DHT22;11556;51.194;3.800;2023-11-19T14:42:25;13.90;99.90
22779;DHT22;11556;51.194;3.800;2023-11-19T14:44:51;13.80;99.90
22779;DHT22;11556;51.194;3.800;2023-11-19T14:47:21;13.80;99.90
22779;DHT22;11556;51.194;3.800;2023-11-19T14:49:46;13.70;99.90
22779;DHT22;11556;51.194;3.800;2023-11-19T14:52:12;13.60;99.90
22779;DHT22;11556;51.194;3.800;2023-11-19T14:54:38;13.70;99.90
22779;DHT22;11556;51.194;3.800;2023-11-19T14:57:05;13.70;99.90
22779;DHT22;11556;51.194;3.800;2023-11-19T14:59:32;13.70;99.90
22779;DHT22;11556;51.194;3.800;2023-11-19T15:01:58;13.60;99.90
22779;DHT22;11556;51.194;3.800;2023-11-19T15:04:26;13.60;99.90
22779;DHT22;11556;51.194;3.800;2023-11-19T15:06:52;13.50;99.90
22779;DHT22;11556;51.194;3.800;2023-11-19T15:09:18;13.30;99.90
22779;DHT22;11556;51.194;3.800;2023-11-19T15:11:46;13.20;99.90
22779;DHT22;11556;51.194;3.800;2023-11-19T15:14:15;13.20;99.90
22779;DHT22;11556;51.194;3.800;2023-11-19T15:16:42;13.10;99.90
22779;DHT22;11556;51.194;3.800;2023-11-19T15:19:08;13.10;99.90
22779;DHT22;11556;51.194;3.800;2023-11-19T15:21:34;13.10;99.90
22779;DHT22;11556;51.194;3.800;2023-11-19T15:24:00;13.00;99.90
22779;DHT22;11556;51.194;3.800;2023-11-19T15:26:29;13.00;99.90
22779;DHT22;11556;51.194;3.800;2023-11-19T15:28:54;13.00;99.90
22779;DHT22;11556;51.194;3.800;2023-11-19T15:31:23;13.00;99.90
22779;DHT22;11556;51.194;3.800;2023-11-19T15:33:49;13.00;99.90
22779;DHT22;11556;51.194;3.800;2023-11-19T15:36:16;12.90;99.90
22779;DHT22;11556;51.194;3.800;2023-11-19T15:38:43;12.90;99.90
22779;DHT22;11556;51.194;3.800;2023-11-19T15:41:08;12.90;99.90
22779;DHT22;11556;51.194;3.800;2023-11-19T15:43:34;12.90;99.90
22779;DHT22;11556;51.194;3.800;2023-11-19T15:46:00;12.80;99.90
22779;DHT22;11556;51.194;3.800;2023-11-19T15:48:25;12.80;99.90
22779;DHT22;11556;51.194;3.800;2023-11-19T15:50:52;12.90;99.90
22779;DHT22;11556;51.194;3.800;2023-11-19T15:53:18;13.00;99.90
22779;DHT22;11556;51.194;3.800;2023-11-19T15:55:44;12.80;99.90
22779;DHT22;11556;51.194;3.800;2023-11-19T15:58:10;12.80;99.90
22779;DHT22;11556;51.194;3.800;2023-11-19T16:00:36;12.80;99.90
22779;DHT22;11556;51.194;3.800;2023-11-19T16:03:02;12.90;99.90
22779;DHT22;11556;51.194;3.800;2023-11-19T16:05:28;12.90;99.90
22779;DHT22;11556;51.194;3.800;2023-11-19T16:07:53;12.90;99.90